createdAt,value
2018-06-20T00:00:52.001Z,995.95
2018-06-20T00:01:49.069Z,995.97
2018-06-20T00:03:09.678Z,995.95
2018-06-20T00:04:10.572Z,995.97
2018-06-20T00:04:49.569Z,995.93
2018-06-20T00:05:49.572Z,995.94
2018-06-20T00:06:50.070Z,995.97
2018-06-20T00:07:50.069Z,995.94
2018-06-20T00:08:50.066Z,995.94
2018-06-20T00:09:50.067Z,995.99
2018-06-20T00:10:50.603Z,995.97
2018-06-20T00:12:11.569Z,995.91
2018-06-20T00:12:50.569Z,995.91
2018-06-20T00:13:50.572Z,995.95
2018-06-20T00:15:12.069Z,995.90
2018-06-20T00:15:51.069Z,995.89
2018-06-20T00:16:51.072Z,995.90
2018-06-20T00:17:51.069Z,995.88
2018-06-20T00:18:51.567Z,995.94
2018-06-20T00:19:50.819Z,995.89
2018-06-20T00:20:51.568Z,995.90
2018-06-20T00:21:51.568Z,995.87
2018-06-20T00:23:13.067Z,995.85
2018-06-20T00:25:23.440Z,995.87
2018-06-20T00:26:23.448Z,995.83
2018-06-20T00:27:23.449Z,995.80
2018-06-20T00:28:23.046Z,995.80
2018-06-20T00:29:45.913Z,995.81
2018-06-20T00:30:25.952Z,995.80
2018-06-20T00:31:23.947Z,995.83
2018-06-20T00:32:24.448Z,995.80
2018-06-20T00:34:58.316Z,995.80
2018-06-20T00:35:56.324Z,995.76
2018-06-20T00:36:56.323Z,995.72
2018-06-20T00:39:34.068Z,995.74
2018-06-20T00:40:30.080Z,995.76
2018-06-20T00:41:28.079Z,995.79
2018-06-20T00:43:59.841Z,995.69
2018-06-20T00:44:59.847Z,995.70
2018-06-20T00:45:59.850Z,995.70
2018-06-20T00:48:32.547Z,995.69
2018-06-20T00:49:31.613Z,995.65
2018-06-20T00:50:53.614Z,995.65
2018-06-20T00:51:32.115Z,995.64
2018-06-20T00:52:53.115Z,995.66
2018-06-20T00:53:32.120Z,995.64
2018-06-20T00:54:32.126Z,995.66
2018-06-20T00:55:33.547Z,995.63
2018-06-20T00:56:32.627Z,995.64
2018-06-20T00:57:32.616Z,995.62
2018-06-20T00:58:32.616Z,995.59
2018-06-20T00:59:33.126Z,995.62
2018-06-20T01:00:54.118Z,995.58
2018-06-20T01:01:39.115Z,995.55
2018-06-20T01:02:54.115Z,995.56
2018-06-20T01:03:33.622Z,995.57
2018-06-20T01:04:33.615Z,995.57
2018-06-20T01:05:32.986Z,995.59
2018-06-20T01:06:33.616Z,995.57
2018-06-20T01:07:34.116Z,995.58
2018-06-20T01:08:35.584Z,995.55
2018-06-20T01:09:34.116Z,995.56
2018-06-20T01:10:34.119Z,995.56
2018-06-20T01:11:34.637Z,995.58
2018-06-20T01:12:34.615Z,995.55
2018-06-20T01:13:33.965Z,995.55
2018-06-20T01:14:34.622Z,995.52
2018-06-20T01:15:37.116Z,995.53
2018-06-20T01:16:35.117Z,995.47
2018-06-20T01:17:34.467Z,995.54
2018-06-20T01:18:35.115Z,995.51
2018-06-20T01:19:35.619Z,995.53
2018-06-20T01:20:35.615Z,995.51
2018-06-20T01:21:35.612Z,995.54
2018-06-20T01:22:35.615Z,995.51
2018-06-20T01:25:09.368Z,995.56
2018-06-20T01:26:07.376Z,995.52
2018-06-20T01:27:07.375Z,995.55
2018-06-20T01:28:21.875Z,995.55
2018-06-20T01:30:39.242Z,995.55
2018-06-20T01:31:39.269Z,995.52
2018-06-20T01:32:40.684Z,995.56
2018-06-20T01:33:39.752Z,995.57
2018-06-20T01:34:42.184Z,995.57
2018-06-20T01:35:40.684Z,995.53
2018-06-20T01:36:39.751Z,995.51
2018-06-20T01:38:02.685Z,995.50
2018-06-20T01:38:40.258Z,995.51
2018-06-20T01:39:54.262Z,995.50
2018-06-20T01:40:40.254Z,995.51
2018-06-20T01:41:39.731Z,995.49
2018-06-20T01:42:40.751Z,995.50
2018-06-20T01:43:40.752Z,995.48
2018-06-20T01:44:40.794Z,995.49
2018-06-20T01:46:02.249Z,995.45
2018-06-20T01:46:40.352Z,995.49
2018-06-20T01:47:41.254Z,995.49
2018-06-20T01:48:42.725Z,995.50
2018-06-20T01:49:40.699Z,995.48
2018-06-20T01:50:42.704Z,995.47
2018-06-20T01:53:15.589Z,995.51
2018-06-20T01:54:15.031Z,995.48
2018-06-20T01:55:13.624Z,995.48
2018-06-20T01:56:13.601Z,995.49
2018-06-20T01:57:14.098Z,995.53
2018-06-20T01:58:17.530Z,995.50
2018-06-20T01:59:35.098Z,995.48
2018-06-20T02:00:13.575Z,995.49
2018-06-20T02:01:38.031Z,995.52
2018-06-20T02:03:45.924Z,995.56
2018-06-20T02:04:45.937Z,995.52
2018-06-20T02:05:45.930Z,995.52
2018-06-20T02:06:46.430Z,995.51
2018-06-20T02:08:09.430Z,995.48
2018-06-20T02:08:46.427Z,995.49
2018-06-20T02:09:53.362Z,995.48
2018-06-20T02:11:09.370Z,995.52
2018-06-20T02:11:46.109Z,995.51
2018-06-20T02:12:50.362Z,995.50
2018-06-20T02:13:48.864Z,995.50
2018-06-20T02:14:46.936Z,995.50
2018-06-20T02:15:46.938Z,995.48
2018-06-20T02:16:46.536Z,995.48
2018-06-20T02:19:18.816Z,995.46
2018-06-20T02:20:20.286Z,995.47
2018-06-20T02:21:18.821Z,995.45
2018-06-20T02:22:39.397Z,995.48
2018-06-20T02:23:18.529Z,995.47
2018-06-20T02:24:40.321Z,995.46
2018-06-20T02:25:19.325Z,995.45
2018-06-20T02:26:39.772Z,995.47
2018-06-20T02:28:50.302Z,995.53
2018-06-20T02:29:51.032Z,995.42
2018-06-20T02:30:51.043Z,995.49
2018-06-20T02:33:22.051Z,995.43
2018-06-20T02:34:22.806Z,995.40
2018-06-20T02:35:22.801Z,995.42
2018-06-20T02:36:24.233Z,995.44
2018-06-20T02:37:23.301Z,995.40
2018-06-20T02:38:22.649Z,995.39
2018-06-20T02:39:23.299Z,995.33
2018-06-20T02:40:23.808Z,995.38
2018-06-20T02:42:56.633Z,995.35
2018-06-20T02:43:55.174Z,995.37
2018-06-20T02:45:09.679Z,995.38
2018-06-20T02:47:27.078Z,995.43
2018-06-20T02:48:27.085Z,995.44
2018-06-20T02:49:27.084Z,995.43
2018-06-20T02:50:27.585Z,995.41
2018-06-20T02:51:27.588Z,995.41
2018-06-20T02:52:27.582Z,995.41
2018-06-20T02:53:27.585Z,995.39
2018-06-20T02:54:30.518Z,995.43
2018-06-20T02:55:27.278Z,995.41
2018-06-20T02:56:49.085Z,995.40
2018-06-20T02:57:27.514Z,995.43
2018-06-20T02:58:28.585Z,995.42
2018-06-20T03:02:31.252Z,995.44
2018-06-20T03:03:31.257Z,995.41
2018-06-20T03:04:31.257Z,995.44
2018-06-20T03:05:31.806Z,995.43
2018-06-20T03:06:31.758Z,995.40
2018-06-20T03:07:31.697Z,995.40
2018-06-20T03:08:56.690Z,995.41
2018-06-20T03:09:34.266Z,995.40
2018-06-20T03:10:56.689Z,995.35
2018-06-20T03:11:46.253Z,995.40
2018-06-20T03:12:32.255Z,995.41
2018-06-20T03:15:10.028Z,995.35
2018-06-20T03:16:04.028Z,995.37
2018-06-20T03:17:04.028Z,995.34
2018-06-20T03:18:18.577Z,995.35
2018-06-20T03:19:04.529Z,995.39
2018-06-20T03:20:24.728Z,995.32
2018-06-20T03:21:06.529Z,995.34
2018-06-20T03:22:07.460Z,995.34
2018-06-20T03:23:04.529Z,995.30
2018-06-20T03:25:36.319Z,995.29
2018-06-20T03:26:36.325Z,995.32
2018-06-20T03:27:36.330Z,995.32
2018-06-20T03:28:36.822Z,995.30
2018-06-20T03:29:37.820Z,995.32
2018-06-20T03:30:59.258Z,995.35
2018-06-20T03:31:36.833Z,995.37
2018-06-20T03:32:37.323Z,995.35
2018-06-20T03:33:37.323Z,995.33
2018-06-20T03:34:37.323Z,995.38
2018-06-20T03:35:37.322Z,995.39
2018-06-20T03:36:37.826Z,995.37
2018-06-20T03:37:37.842Z,995.39
2018-06-20T03:38:37.824Z,995.40
2018-06-20T03:39:37.877Z,995.42
2018-06-20T03:40:38.333Z,995.42
2018-06-20T03:41:40.358Z,995.40
2018-06-20T03:42:38.385Z,995.40
2018-06-20T03:43:39.254Z,995.41
2018-06-20T03:44:44.322Z,995.38
2018-06-20T03:47:10.092Z,995.39
2018-06-20T03:48:10.099Z,995.41
2018-06-20T03:49:10.099Z,995.40
2018-06-20T03:50:09.696Z,995.38
2018-06-20T03:52:41.960Z,995.41
2018-06-20T03:53:41.966Z,995.35
2018-06-20T03:54:41.967Z,995.35
2018-06-20T03:55:56.467Z,995.39
2018-06-20T03:56:42.476Z,995.39
2018-06-20T03:58:03.473Z,995.37
2018-06-20T03:58:42.467Z,995.33
2018-06-20T04:00:06.952Z,995.35
2018-06-20T04:00:43.031Z,995.31
2018-06-20T04:01:42.966Z,995.32
2018-06-20T04:02:42.967Z,995.37
2018-06-20T04:03:42.966Z,995.37
2018-06-20T04:05:04.467Z,995.39
2018-06-20T04:05:43.465Z,995.37
2018-06-20T04:06:43.473Z,995.37
2018-06-20T04:07:43.476Z,995.38
2018-06-20T04:08:43.967Z,995.36
2018-06-20T04:09:43.966Z,995.39
2018-06-20T04:10:43.975Z,995.39
2018-06-20T04:11:44.965Z,995.41
2018-06-20T04:12:44.521Z,995.40
2018-06-20T04:13:44.469Z,995.40
2018-06-20T04:14:44.467Z,995.38
2018-06-20T04:15:44.467Z,995.36
2018-06-20T04:17:07.965Z,995.43
2018-06-20T04:17:45.968Z,995.40
2018-06-20T04:18:44.969Z,995.40
2018-06-20T04:19:44.966Z,995.43
2018-06-20T04:22:17.680Z,995.40
2018-06-20T04:23:16.029Z,995.39
2018-06-20T04:24:16.156Z,995.40
2018-06-20T04:25:39.650Z,995.38
2018-06-20T04:28:08.873Z,995.39
2018-06-20T04:28:49.977Z,995.40
2018-06-20T04:29:54.602Z,995.39
2018-06-20T04:30:48.078Z,995.41
2018-06-20T04:31:49.995Z,995.37
2018-06-20T04:33:09.198Z,995.40
2018-06-20T04:33:49.050Z,995.34
2018-06-20T04:34:49.296Z,995.37
2018-06-20T04:35:49.043Z,995.32
2018-06-20T04:36:49.546Z,995.33
2018-06-20T04:37:49.541Z,995.30
2018-06-20T04:38:49.542Z,995.29
2018-06-20T04:39:49.540Z,995.36
2018-06-20T04:40:50.043Z,995.34
2018-06-20T04:41:50.092Z,995.31
2018-06-20T04:42:50.089Z,995.34
2018-06-20T04:43:50.050Z,995.35
2018-06-20T04:46:43.285Z,995.32
2018-06-20T04:47:22.292Z,995.32
2018-06-20T04:48:22.292Z,995.33
2018-06-20T04:49:24.795Z,995.34
2018-06-20T04:50:42.998Z,995.35
2018-06-20T04:52:54.271Z,995.30
2018-06-20T04:54:15.277Z,995.27
2018-06-20T04:54:54.279Z,995.27
2018-06-20T04:55:56.788Z,995.21
2018-06-20T04:56:54.083Z,995.22
2018-06-20T04:58:08.786Z,995.22
2018-06-20T04:59:15.798Z,995.23
2018-06-20T05:00:09.301Z,995.20
2018-06-20T05:00:57.277Z,995.19
2018-06-20T05:02:01.288Z,995.20
2018-06-20T05:02:55.276Z,995.17
2018-06-20T05:05:27.031Z,995.17
2018-06-20T05:06:26.506Z,995.16
2018-06-20T05:07:27.539Z,995.12
2018-06-20T05:08:26.759Z,995.13
2018-06-20T05:09:27.540Z,995.09
2018-06-20T05:10:27.539Z,995.05
2018-06-20T05:12:59.786Z,995.14
2018-06-20T05:13:59.793Z,995.12
2018-06-20T05:14:59.793Z,995.09
2018-06-20T05:15:59.808Z,995.14
2018-06-20T05:18:52.560Z,995.09
2018-06-20T05:19:31.569Z,995.05
2018-06-20T05:20:31.574Z,995.07
2018-06-20T05:21:53.997Z,995.05
2018-06-20T05:22:35.010Z,995.04
2018-06-20T05:23:53.065Z,995.07
2018-06-20T05:24:32.069Z,995.07
2018-06-20T05:25:53.561Z,995.00
2018-06-20T05:26:47.520Z,995.05
2018-06-20T05:27:33.564Z,995.04
2018-06-20T05:28:32.565Z,995.04
2018-06-20T05:29:33.068Z,995.03
2018-06-20T05:33:35.874Z,995.02
2018-06-20T05:34:35.881Z,994.96
2018-06-20T05:35:37.315Z,994.98
2018-06-20T05:36:36.381Z,994.96
2018-06-20T05:39:09.221Z,994.96
2018-06-20T05:40:07.802Z,994.95
2018-06-20T05:41:07.768Z,994.98
2018-06-20T05:42:29.278Z,994.96
2018-06-20T05:43:07.506Z,994.97
2018-06-20T05:44:08.269Z,994.94
2018-06-20T05:45:09.200Z,994.96
2018-06-20T05:46:29.768Z,994.98
2018-06-20T05:47:09.201Z,994.98
2018-06-20T05:48:08.769Z,994.97
2018-06-20T05:49:08.798Z,994.92
2018-06-20T05:50:09.269Z,994.97
2018-06-20T05:51:16.703Z,994.92
2018-06-20T05:52:09.267Z,994.97
2018-06-20T05:53:09.302Z,994.97
2018-06-20T05:55:41.025Z,994.94
2018-06-20T05:56:42.016Z,994.96
2018-06-20T05:57:41.028Z,994.94
2018-06-20T05:58:42.029Z,994.95
2018-06-20T05:59:40.618Z,994.99
2018-06-20T06:00:40.717Z,994.98
2018-06-20T06:02:41.537Z,994.98
2018-06-20T06:03:41.003Z,994.97
2018-06-20T06:06:13.253Z,994.97
2018-06-20T06:07:12.600Z,994.95
2018-06-20T06:08:13.252Z,994.91
2018-06-20T06:09:33.834Z,994.94
2018-06-20T06:11:45.092Z,994.95
2018-06-20T06:12:44.444Z,994.94
2018-06-20T06:13:45.102Z,994.95
2018-06-20T06:14:47.600Z,994.89
2018-06-20T06:17:37.983Z,994.85
2018-06-20T06:18:16.353Z,994.85
2018-06-20T06:19:16.473Z,994.86
2018-06-20T06:22:09.712Z,994.87
2018-06-20T06:23:09.047Z,994.90
2018-06-20T06:24:09.719Z,994.87
2018-06-20T06:25:11.698Z,994.89
2018-06-20T06:27:41.436Z,994.90
2018-06-20T06:28:22.441Z,994.85
2018-06-20T06:29:41.444Z,994.89
2018-06-20T06:30:42.062Z,994.89
2018-06-20T06:31:34.943Z,994.88
2018-06-20T06:32:41.955Z,994.88
2018-06-20T06:33:20.948Z,994.88
2018-06-20T06:34:23.448Z,994.87
2018-06-20T06:35:20.687Z,994.89
2018-06-20T06:36:20.810Z,994.81
2018-06-20T06:37:21.444Z,994.81
2018-06-20T06:38:21.955Z,994.80
2018-06-20T06:39:21.947Z,994.77
2018-06-20T06:40:21.943Z,994.78
2018-06-20T06:41:21.453Z,994.80
2018-06-20T06:44:00.232Z,994.74
2018-06-20T06:45:17.226Z,994.69
2018-06-20T06:46:00.228Z,994.71
2018-06-20T06:47:15.220Z,994.68
2018-06-20T06:49:25.991Z,994.71
2018-06-20T06:50:48.987Z,994.72
2018-06-20T06:51:32.021Z,994.71
2018-06-20T06:52:46.601Z,994.72
2018-06-20T06:54:59.296Z,994.71
2018-06-20T06:57:51.363Z,994.74
2018-06-20T06:58:29.372Z,994.69
2018-06-20T06:59:29.372Z,994.71
2018-06-20T07:02:01.165Z,994.66
2018-06-20T07:03:01.133Z,994.67
2018-06-20T07:04:01.133Z,994.69
2018-06-20T07:08:04.329Z,994.68
2018-06-20T07:12:28.267Z,994.63
2018-06-20T07:13:09.284Z,994.63
2018-06-20T07:15:44.938Z,994.59
2018-06-20T07:16:38.904Z,994.61
2018-06-20T07:17:40.906Z,994.61
2018-06-20T07:18:41.404Z,994.58
2018-06-20T07:20:04.337Z,994.60
2018-06-20T07:20:39.403Z,994.59
2018-06-20T07:22:00.408Z,994.58
2018-06-20T07:23:02.905Z,994.59
2018-06-20T07:25:11.310Z,994.60
2018-06-20T07:27:11.324Z,994.58
2018-06-20T07:29:43.083Z,994.57
2018-06-20T07:30:42.440Z,994.60
2018-06-20T07:31:42.548Z,994.55
2018-06-20T07:33:03.640Z,994.56
2018-06-20T07:33:45.586Z,994.58
2018-06-20T07:36:15.113Z,994.53
2018-06-20T07:37:15.015Z,994.57
2018-06-20T07:38:36.013Z,994.55
2018-06-20T07:42:18.228Z,994.51
2018-06-20T07:43:18.235Z,994.53
2018-06-20T07:44:18.235Z,994.47
2018-06-20T07:45:32.730Z,994.50
2018-06-20T07:46:39.735Z,994.49
2018-06-20T07:47:24.739Z,994.49
2018-06-20T07:48:18.227Z,994.49
2018-06-20T07:50:49.842Z,994.49
2018-06-20T07:51:50.487Z,994.47
2018-06-20T07:52:50.487Z,994.47
2018-06-20T07:53:52.992Z,994.46
2018-06-20T07:57:54.604Z,994.41
2018-06-20T08:02:24.572Z,994.38
2018-06-20T08:02:57.579Z,994.40
2018-06-20T08:04:06.054Z,994.36
2018-06-20T08:04:59.538Z,994.25
2018-06-20T08:05:58.097Z,994.27
2018-06-20T08:06:57.554Z,994.28
2018-06-20T08:07:57.667Z,994.31
2018-06-20T08:09:21.577Z,994.31
2018-06-20T08:09:58.583Z,994.26
2018-06-20T08:10:58.580Z,994.29
2018-06-20T08:11:59.140Z,994.36
2018-06-20T08:12:58.235Z,994.28
2018-06-20T08:13:59.081Z,994.26
2018-06-20T08:15:06.078Z,994.28
2018-06-20T08:16:21.078Z,994.24
2018-06-20T08:16:58.681Z,994.27
2018-06-20T08:18:22.580Z,994.27
2018-06-20T08:19:20.578Z,994.23
2018-06-20T08:19:59.580Z,994.32
2018-06-20T08:21:20.170Z,994.32
2018-06-20T08:22:00.082Z,994.24
2018-06-20T08:23:02.513Z,994.27
2018-06-20T08:24:00.082Z,994.25
2018-06-20T08:25:20.694Z,994.25
2018-06-20T08:26:00.581Z,994.24
2018-06-20T08:27:00.586Z,994.24
2018-06-20T08:28:00.059Z,994.26
2018-06-20T08:29:22.086Z,994.25
2018-06-20T08:30:15.081Z,994.28
2018-06-20T08:31:03.083Z,994.33
2018-06-20T08:32:01.086Z,994.24
2018-06-20T08:33:01.581Z,994.26
2018-06-20T08:35:32.966Z,994.22
2018-06-20T08:36:32.343Z,994.22
2018-06-20T08:37:53.975Z,994.20
2018-06-20T08:38:33.474Z,994.16
2018-06-20T08:41:06.322Z,994.21
2018-06-20T08:42:04.863Z,994.17
2018-06-20T08:43:04.353Z,994.21
2018-06-20T08:47:10.030Z,994.10
2018-06-20T08:48:08.076Z,994.11
2018-06-20T08:49:07.625Z,994.11
2018-06-20T08:50:10.566Z,994.18
2018-06-20T08:51:08.565Z,994.16
2018-06-20T08:52:08.565Z,994.19
2018-06-20T08:53:09.126Z,994.18
2018-06-20T08:54:23.066Z,994.11
2018-06-20T08:56:40.461Z,994.10
2018-06-20T08:59:17.974Z,994.10
2018-06-20T09:02:04.490Z,994.14
2018-06-20T09:02:57.494Z,994.18
2018-06-20T09:03:43.490Z,994.14
2018-06-20T09:04:43.164Z,994.13
2018-06-20T09:05:49.994Z,994.18
2018-06-20T09:07:09.423Z,994.20
2018-06-20T09:08:06.960Z,994.10
2018-06-20T09:08:46.540Z,994.12
2018-06-20T09:13:10.339Z,994.11
2018-06-20T09:13:48.340Z,994.11
2018-06-20T09:14:46.847Z,994.11
2018-06-20T09:16:08.844Z,994.11
2018-06-20T09:16:55.284Z,994.09
2018-06-20T09:17:47.849Z,994.14
2018-06-20T09:18:47.338Z,994.13
2018-06-20T09:20:09.348Z,994.13
2018-06-20T09:20:48.342Z,994.15
2018-06-20T09:21:48.352Z,994.13
2018-06-20T09:22:48.351Z,994.14
2018-06-20T09:23:48.845Z,994.17
2018-06-20T09:24:48.076Z,994.12
2018-06-20T09:27:26.368Z,994.10
2018-06-20T09:28:20.375Z,994.09
2018-06-20T09:29:26.370Z,994.09
2018-06-20T09:30:47.869Z,994.06
2018-06-20T09:31:20.871Z,994.10
2018-06-20T09:32:22.863Z,994.13
2018-06-20T09:33:20.355Z,994.12
2018-06-20T09:34:21.428Z,994.09
2018-06-20T09:37:14.266Z,994.05
2018-06-20T09:37:53.281Z,994.00
2018-06-20T09:40:45.810Z,993.99
2018-06-20T09:41:52.740Z,994.01
2018-06-20T09:42:27.312Z,994.03
2018-06-20T09:43:48.309Z,994.01
2018-06-20T09:44:31.312Z,993.97
2018-06-20T09:45:25.314Z,993.94
2018-06-20T09:46:25.317Z,993.96
2018-06-20T09:47:49.741Z,993.97
2018-06-20T09:48:48.810Z,993.96
2018-06-20T09:49:27.809Z,993.95
2018-06-20T09:50:25.812Z,993.98
2018-06-20T09:51:26.311Z,993.98
2018-06-20T09:52:50.809Z,993.96
2018-06-20T09:53:26.312Z,993.90
2018-06-20T09:54:27.742Z,993.95
2018-06-20T09:55:25.904Z,993.95
2018-06-20T09:56:47.045Z,993.94
2018-06-20T09:57:26.810Z,993.95
2018-06-20T09:58:26.197Z,993.89
2018-06-20T09:59:26.810Z,993.92
2018-06-20T10:00:33.372Z,993.94
2018-06-20T10:01:48.747Z,993.95
2018-06-20T10:02:47.601Z,993.85
2018-06-20T10:03:27.309Z,993.88
2018-06-20T10:04:26.792Z,993.89
2018-06-20T10:05:26.901Z,993.94
2018-06-20T10:06:27.061Z,993.90
2018-06-20T10:07:29.814Z,993.89
2018-06-20T10:08:27.180Z,993.89
2018-06-20T10:09:34.310Z,993.88
2018-06-20T10:10:33.243Z,993.87
2018-06-20T10:11:28.311Z,993.87
2018-06-20T10:12:32.244Z,993.81
2018-06-20T10:13:28.311Z,993.79
2018-06-20T10:14:28.811Z,993.78
2018-06-20T10:15:28.808Z,993.79
2018-06-20T10:16:30.818Z,993.76
2018-06-20T10:17:28.816Z,993.76
2018-06-20T10:18:56.311Z,993.81
2018-06-20T10:19:30.751Z,993.79
2018-06-20T10:20:29.321Z,993.80
2018-06-20T10:21:29.375Z,993.76
2018-06-20T10:22:30.744Z,993.77
2018-06-20T10:23:30.743Z,993.74
2018-06-20T10:24:31.267Z,993.75
2018-06-20T10:25:29.130Z,993.70
2018-06-20T10:26:29.811Z,993.74
2018-06-20T10:27:29.813Z,993.70
2018-06-20T10:28:30.347Z,993.69
2018-06-20T10:29:30.313Z,993.68
2018-06-20T10:30:36.312Z,993.63
2018-06-20T10:31:29.811Z,993.62
2018-06-20T10:32:30.811Z,993.58
2018-06-20T10:33:51.817Z,993.62
2018-06-20T10:36:04.337Z,993.59
2018-06-20T10:37:02.343Z,993.59
2018-06-20T10:38:25.346Z,993.54
2018-06-20T10:39:01.949Z,993.56
2018-06-20T10:40:08.843Z,993.55
2018-06-20T10:41:25.298Z,993.57
2018-06-20T10:42:04.275Z,993.54
2018-06-20T10:43:10.782Z,993.56
2018-06-20T10:44:30.346Z,993.48
2018-06-20T10:45:09.362Z,993.47
2018-06-20T10:46:05.381Z,993.49
2018-06-20T10:47:24.342Z,993.49
2018-06-20T10:48:09.849Z,993.45
2018-06-20T10:49:17.877Z,993.43
2018-06-20T10:50:09.844Z,993.38
2018-06-20T10:51:03.850Z,993.35
2018-06-20T10:58:58.505Z,993.32
2018-06-20T10:59:37.476Z,993.31
2018-06-20T11:00:58.477Z,993.30
2018-06-20T11:01:37.083Z,993.25
2018-06-20T11:02:37.970Z,993.27
2018-06-20T11:03:37.969Z,993.26
2018-06-20T11:04:37.970Z,993.18
2018-06-20T11:07:29.995Z,993.19
2018-06-20T11:08:09.125Z,993.18
2018-06-20T11:09:09.733Z,993.19
2018-06-20T11:10:14.172Z,993.16
2018-06-20T11:11:11.672Z,993.22
2018-06-20T11:12:10.248Z,993.11
2018-06-20T11:13:09.737Z,993.11
2018-06-20T11:14:10.740Z,993.07
2018-06-20T11:15:12.741Z,993.07
2018-06-20T11:16:10.740Z,993.03
2018-06-20T11:18:42.887Z,992.96
2018-06-20T11:19:42.895Z,992.95
2018-06-20T11:20:42.895Z,992.94
2018-06-20T11:21:57.397Z,992.92
2018-06-20T11:22:57.402Z,992.90
2018-06-20T11:23:43.395Z,992.95
2018-06-20T11:24:43.394Z,992.95
2018-06-20T11:28:46.923Z,992.87
2018-06-20T11:29:46.923Z,992.82
2018-06-20T11:30:47.427Z,992.82
2018-06-20T11:31:46.532Z,992.84
2018-06-20T11:32:47.427Z,992.86
2018-06-20T11:35:18.938Z,992.80
2018-06-20T11:36:18.952Z,992.84
2018-06-20T11:37:18.952Z,992.78
2018-06-20T11:38:18.571Z,992.77
2018-06-20T11:40:50.844Z,992.69
2018-06-20T11:41:50.851Z,992.70
2018-06-20T11:42:50.851Z,992.64
2018-06-20T11:44:11.447Z,992.70
2018-06-20T11:45:12.366Z,992.64
2018-06-20T11:45:51.357Z,992.66
2018-06-20T11:46:52.285Z,992.63
2018-06-20T11:47:51.851Z,992.61
2018-06-20T11:48:51.855Z,992.66
2018-06-20T11:49:51.875Z,992.65
2018-06-20T11:50:51.209Z,992.61
2018-06-20T11:51:51.851Z,992.60
2018-06-20T11:52:55.284Z,992.61
2018-06-20T11:53:52.352Z,992.55
2018-06-20T11:54:52.352Z,992.53
2018-06-20T11:55:52.370Z,992.50
2018-06-20T11:58:24.120Z,992.49
2018-06-20T11:59:23.483Z,992.47
2018-06-20T12:00:24.129Z,992.46
2018-06-20T12:01:46.115Z,992.44
2018-06-20T12:02:29.564Z,992.44
2018-06-20T12:03:24.626Z,992.42
2018-06-20T12:07:28.053Z,992.33
2018-06-20T12:08:28.994Z,992.34
2018-06-20T12:09:28.059Z,992.36
2018-06-20T12:10:28.053Z,992.39
2018-06-20T12:11:30.556Z,992.36
2018-06-20T12:12:49.554Z,992.37
2018-06-20T12:13:28.557Z,992.35
2018-06-20T12:14:50.056Z,992.37
2018-06-20T12:17:22.262Z,992.33
2018-06-20T12:18:14.330Z,992.31
2018-06-20T12:19:01.291Z,992.30
2018-06-20T12:20:01.829Z,992.30
2018-06-20T12:24:05.643Z,992.25
2018-06-20T12:25:09.683Z,992.20
2018-06-20T12:26:03.681Z,992.16
2018-06-20T12:27:04.177Z,992.17
2018-06-20T12:28:05.632Z,992.20
2018-06-20T12:29:25.278Z,992.14
2018-06-20T12:30:06.178Z,992.21
2018-06-20T12:32:36.448Z,992.17
2018-06-20T12:33:37.410Z,992.18
2018-06-20T12:36:29.076Z,992.09
2018-06-20T12:37:07.410Z,992.05
2018-06-20T12:38:29.058Z,992.02
2018-06-20T12:39:07.674Z,991.99
2018-06-20T12:41:39.939Z,991.94
2018-06-20T12:42:41.397Z,991.94
2018-06-20T12:44:01.955Z,991.92
2018-06-20T12:44:39.433Z,991.92
2018-06-20T12:46:01.443Z,991.92
2018-06-20T12:46:46.444Z,991.92
2018-06-20T12:47:40.445Z,991.94
2018-06-20T12:48:40.448Z,991.97
2018-06-20T12:51:12.202Z,991.87
2018-06-20T12:52:12.212Z,991.90
2018-06-20T12:53:33.212Z,991.86
2018-06-20T12:55:44.485Z,991.83
2018-06-20T12:56:45.952Z,991.84
2018-06-20T12:57:44.485Z,991.85
2018-06-20T12:58:46.984Z,991.83
2018-06-20T12:59:44.990Z,991.79
2018-06-20T13:02:37.523Z,991.78
2018-06-20T13:03:15.873Z,991.78
2018-06-20T13:04:16.520Z,991.76
2018-06-20T13:05:19.027Z,991.71
2018-06-20T13:06:40.023Z,991.76
2018-06-20T13:08:48.552Z,991.75
2018-06-20T13:09:48.559Z,991.72
2018-06-20T13:10:48.556Z,991.66
2018-06-20T13:11:50.059Z,991.75
2018-06-20T13:12:49.081Z,991.67
2018-06-20T13:13:49.056Z,991.67
2018-06-20T13:15:09.548Z,991.69
2018-06-20T13:16:03.556Z,991.71
2018-06-20T13:16:49.554Z,991.64
2018-06-20T13:18:10.561Z,991.69
2018-06-20T13:19:10.586Z,991.66
2018-06-20T13:19:52.060Z,991.63
2018-06-20T13:22:23.483Z,991.55
2018-06-20T13:23:20.835Z,991.61
2018-06-20T13:24:21.529Z,991.60
2018-06-20T13:25:42.990Z,991.56
2018-06-20T13:26:43.020Z,991.55
2018-06-20T13:27:42.989Z,991.56
2018-06-20T13:28:42.985Z,991.60
2018-06-20T13:29:22.052Z,991.57
2018-06-20T13:31:53.797Z,991.53
2018-06-20T13:32:53.712Z,991.54
2018-06-20T13:33:53.713Z,991.52
2018-06-20T13:34:54.213Z,991.49
2018-06-20T13:36:08.232Z,991.45
2018-06-20T13:36:54.213Z,991.52
2018-06-20T13:38:15.211Z,991.42
2018-06-20T13:40:25.996Z,991.45
2018-06-20T13:41:25.999Z,991.44
2018-06-20T13:42:47.002Z,991.44
2018-06-20T13:43:26.506Z,991.45
2018-06-20T13:47:28.606Z,991.44
2018-06-20T13:48:29.345Z,991.46
2018-06-20T13:49:29.345Z,991.46
2018-06-20T13:50:50.845Z,991.41
2018-06-20T13:51:29.844Z,991.44
2018-06-20T13:52:29.207Z,991.40
2018-06-20T13:53:29.377Z,991.43
2018-06-20T13:56:01.694Z,991.41
2018-06-20T13:57:01.723Z,991.43
2018-06-20T13:58:01.688Z,991.41
2018-06-20T13:59:23.208Z,991.37
2018-06-20T14:00:04.726Z,991.37
2018-06-20T14:07:07.377Z,991.37
2018-06-20T14:08:07.500Z,991.29
2018-06-20T14:09:08.118Z,991.27
2018-06-20T14:10:11.040Z,991.27
2018-06-20T14:11:29.607Z,991.28
2018-06-20T14:12:08.609Z,991.29
2018-06-20T14:13:08.095Z,991.29
2018-06-20T14:14:11.110Z,991.27
2018-06-20T14:16:40.528Z,991.26
2018-06-20T14:19:12.037Z,991.24
2018-06-20T14:20:12.044Z,991.23
2018-06-20T14:21:12.045Z,991.27
2018-06-20T14:22:11.688Z,991.28
2018-06-20T14:23:12.551Z,991.25
2018-06-20T14:24:12.545Z,991.24
2018-06-20T14:25:18.549Z,991.21
2018-06-20T14:26:13.058Z,991.17
2018-06-20T14:27:13.054Z,991.20
2018-06-20T14:28:13.046Z,991.19
2018-06-20T14:29:13.046Z,991.16
2018-06-20T14:30:13.546Z,991.19
2018-06-20T14:31:13.545Z,991.16
2018-06-20T14:32:34.548Z,991.13
2018-06-20T14:33:15.978Z,991.12
2018-06-20T14:34:13.169Z,991.10
2018-06-20T14:35:14.097Z,991.09
2018-06-20T14:36:41.047Z,991.11
2018-06-20T14:37:13.542Z,991.13
2018-06-20T14:38:14.546Z,991.15
2018-06-20T14:39:14.547Z,990.95
2018-06-20T14:40:15.479Z,991.14
2018-06-20T14:41:14.026Z,991.14
2018-06-20T14:43:46.800Z,991.05
2018-06-20T14:44:47.766Z,991.05
2018-06-20T14:47:23.918Z,990.99
2018-06-20T14:48:17.283Z,991.00
2018-06-20T14:49:39.862Z,991.01
2018-06-20T14:52:10.718Z,991.02
2018-06-20T14:52:49.732Z,990.99
2018-06-20T14:53:49.742Z,991.00
2018-06-20T14:54:49.356Z,990.95
2018-06-20T14:56:11.232Z,990.91
2018-06-20T14:56:51.664Z,990.91
2018-06-20T14:58:11.232Z,990.90
2018-06-20T14:58:49.845Z,990.88
2018-06-20T14:59:50.689Z,990.88
2018-06-20T15:01:11.131Z,990.87
2018-06-20T15:01:50.732Z,990.89
2018-06-20T15:04:36.517Z,990.88
2018-06-20T15:05:24.526Z,990.87
2018-06-20T15:06:43.520Z,990.90
2018-06-20T15:09:14.556Z,990.88
2018-06-20T15:09:54.304Z,990.85
2018-06-20T15:10:54.305Z,990.82
2018-06-20T15:11:54.805Z,990.80
2018-06-20T15:14:26.276Z,990.80
2018-06-20T15:15:26.220Z,990.78
2018-06-20T15:16:29.152Z,990.72
2018-06-20T15:17:28.177Z,990.76
2018-06-20T15:18:46.892Z,990.72
2018-06-20T15:19:28.152Z,990.71
2018-06-20T15:20:26.718Z,990.69